createdAt,value
2018-12-19T00:00:50.047Z,5.30
2018-12-19T00:01:50.013Z,5.30
2018-12-19T00:02:49.988Z,5.20
2018-12-19T00:03:49.969Z,5.60
2018-12-19T00:04:49.948Z,5.70
2018-12-19T00:05:49.929Z,6.20
2018-12-19T00:06:49.903Z,5.50
2018-12-19T00:07:49.881Z,5.30
2018-12-19T00:08:49.859Z,5.80
2018-12-19T00:09:49.843Z,5.00
2018-12-19T00:10:49.815Z,5.80
2018-12-19T00:11:49.793Z,5.20
2018-12-19T00:12:49.777Z,5.60
2018-12-19T00:13:49.748Z,5.20
2018-12-19T00:14:49.724Z,5.00
2018-12-19T00:15:49.699Z,5.10
2018-12-19T00:16:49.679Z,5.00
2018-12-19T00:17:49.655Z,5.50
2018-12-19T00:18:49.635Z,5.70
2018-12-19T00:19:49.612Z,5.70
2018-12-19T00:20:49.594Z,4.80
2018-12-19T00:21:49.570Z,5.50
2018-12-19T00:22:49.555Z,5.50
2018-12-19T00:23:49.527Z,5.50
2018-12-19T00:24:49.510Z,4.90
2018-12-19T00:25:49.479Z,5.00
2018-12-19T00:26:49.458Z,5.10
2018-12-19T00:27:49.436Z,5.20
2018-12-19T00:28:49.413Z,5.40
2018-12-19T00:29:49.392Z,4.70
2018-12-19T00:30:49.367Z,5.40
2018-12-19T00:31:49.346Z,5.20
2018-12-19T00:32:49.324Z,5.80
2018-12-19T00:33:49.304Z,5.40
2018-12-19T00:34:49.330Z,5.60
2018-12-19T00:35:49.265Z,5.20
2018-12-19T00:36:49.234Z,4.90
2018-12-19T00:37:49.220Z,5.10
2018-12-19T00:38:49.190Z,4.60
2018-12-19T00:39:49.169Z,5.50
2018-12-19T00:40:49.148Z,4.90
2018-12-19T00:41:49.133Z,4.80
2018-12-19T00:42:49.101Z,4.90
2018-12-19T00:43:49.082Z,5.20
2018-12-19T00:44:49.055Z,5.10
2018-12-19T00:45:49.057Z,4.80
2018-12-19T00:46:49.013Z,4.90
2018-12-19T00:47:48.992Z,4.90
2018-12-19T00:48:48.971Z,4.70
2018-12-19T00:49:48.947Z,5.20
2018-12-19T00:50:48.922Z,4.80
2018-12-19T00:51:48.904Z,4.80
2018-12-19T00:52:48.898Z,4.70
2018-12-19T00:53:48.864Z,4.80
2018-12-19T00:54:48.833Z,5.10
2018-12-19T00:55:48.812Z,4.90
2018-12-19T00:56:48.790Z,5.10
2018-12-19T00:57:48.772Z,5.20
2018-12-19T00:58:48.745Z,5.00
2018-12-19T00:59:48.724Z,4.80
2018-12-19T01:00:48.702Z,5.20
2018-12-19T01:01:48.685Z,5.10
2018-12-19T01:02:48.655Z,4.70
2018-12-19T01:03:48.633Z,4.90
2018-12-19T01:04:48.614Z,5.10
2018-12-19T01:05:48.590Z,4.90
2018-12-19T01:06:48.568Z,4.70
2018-12-19T01:07:48.565Z,4.70
2018-12-19T01:08:48.524Z,4.60
2018-12-19T01:09:48.505Z,5.40
2018-12-19T01:10:48.478Z,4.90
2018-12-19T01:11:48.457Z,5.30
2018-12-19T01:12:48.485Z,5.00
2018-12-19T01:13:48.413Z,4.90
2018-12-19T01:14:48.395Z,4.90
2018-12-19T01:15:48.367Z,4.80
2018-12-19T01:16:48.343Z,4.80
2018-12-19T01:17:48.321Z,5.20
2018-12-19T01:18:48.298Z,4.90
2018-12-19T01:19:48.276Z,4.90
2018-12-19T01:20:48.256Z,5.30
2018-12-19T01:21:48.235Z,5.20
2018-12-19T01:22:48.212Z,5.30
2018-12-19T01:23:48.189Z,4.90
2018-12-19T01:24:48.167Z,5.00
2018-12-19T01:25:48.149Z,5.60
2018-12-19T01:26:48.120Z,4.90
2018-12-19T01:27:48.103Z,4.90
2018-12-19T01:28:48.078Z,4.90
2018-12-19T01:29:48.056Z,5.40
2018-12-19T01:30:48.042Z,5.20
2018-12-19T01:31:48.013Z,5.20
2018-12-19T01:32:48.008Z,5.20
2018-12-19T01:33:47.971Z,5.60
2018-12-19T01:34:47.945Z,6.10
2018-12-19T01:35:47.922Z,5.80
2018-12-19T01:36:47.914Z,5.20
2018-12-19T01:37:47.880Z,5.40
2018-12-19T01:38:47.863Z,5.70
2018-12-19T01:39:47.841Z,5.60
2018-12-19T01:40:47.812Z,5.40
2018-12-19T01:41:47.790Z,5.40
2018-12-19T01:42:47.769Z,5.50
2018-12-19T01:43:47.745Z,5.40
2018-12-19T01:44:47.723Z,5.70
2018-12-19T01:45:47.700Z,5.30
2018-12-19T01:46:47.679Z,5.40
2018-12-19T01:47:47.654Z,5.60
2018-12-19T01:48:47.635Z,5.40
2018-12-19T01:49:47.610Z,5.80
2018-12-19T01:50:47.592Z,5.60
2018-12-19T01:51:47.564Z,5.80
2018-12-19T01:52:47.544Z,5.40
2018-12-19T01:53:47.522Z,5.70
2018-12-19T01:54:47.498Z,5.80
2018-12-19T01:55:47.476Z,5.90
2018-12-19T01:56:47.458Z,5.50
2018-12-19T01:57:47.433Z,5.60
2018-12-19T01:58:47.410Z,5.90
2018-12-19T01:59:47.389Z,5.50
2018-12-19T02:00:47.369Z,5.90
2018-12-19T02:01:47.343Z,5.30
2018-12-19T02:02:47.321Z,5.30
2018-12-19T02:03:47.299Z,6.40
2018-12-19T02:04:47.275Z,5.80
2018-12-19T02:05:47.253Z,5.90
2018-12-19T02:06:47.231Z,5.60
2018-12-19T02:07:47.210Z,5.70
2018-12-19T02:08:47.187Z,5.60
2018-12-19T02:09:47.167Z,5.90
2018-12-19T02:10:47.144Z,5.80
2018-12-19T02:11:47.120Z,5.40
2018-12-19T02:12:47.100Z,5.90
2018-12-19T02:13:47.078Z,6.00
2018-12-19T02:14:47.059Z,5.70
2018-12-19T02:15:47.030Z,5.80
2018-12-19T02:16:47.012Z,5.60
2018-12-19T02:17:46.986Z,5.60
2018-12-19T02:18:46.965Z,5.60
2018-12-19T02:19:46.942Z,5.60
2018-12-19T02:20:46.921Z,6.00
2018-12-19T02:21:46.901Z,5.60
2018-12-19T02:22:46.878Z,5.80
2018-12-19T02:23:46.857Z,5.60
2018-12-19T02:24:46.833Z,5.70
2018-12-19T02:25:46.812Z,5.40
2018-12-19T02:26:46.790Z,6.10
2018-12-19T02:27:46.766Z,5.20
2018-12-19T02:28:46.744Z,5.60
2018-12-19T02:29:46.722Z,5.50
2018-12-19T02:30:46.700Z,5.80
2018-12-19T02:31:46.681Z,5.30
2018-12-19T02:32:46.655Z,5.80
2018-12-19T02:33:46.633Z,5.60
2018-12-19T02:34:46.612Z,5.90
2018-12-19T02:35:46.588Z,5.60
2018-12-19T02:36:46.568Z,5.10
2018-12-19T02:37:46.546Z,5.60
2018-12-19T02:38:46.525Z,5.70
2018-12-19T02:39:46.499Z,6.10
2018-12-19T02:40:46.482Z,5.70
2018-12-19T02:41:46.458Z,5.80
2018-12-19T02:42:46.437Z,5.50
2018-12-19T02:43:46.412Z,5.40
2018-12-19T02:44:46.396Z,5.60
2018-12-19T02:45:46.369Z,5.50
2018-12-19T02:46:46.355Z,5.60
2018-12-19T02:47:46.325Z,5.50
2018-12-19T02:48:46.301Z,4.80
2018-12-19T02:49:46.279Z,5.50
2018-12-19T02:50:46.273Z,5.30
2018-12-19T02:51:46.239Z,5.90
2018-12-19T02:52:46.216Z,5.40
2018-12-19T02:53:46.192Z,4.90
2018-12-19T02:54:46.170Z,4.90
2018-12-19T02:55:46.145Z,5.10
2018-12-19T02:56:46.124Z,5.30
2018-12-19T02:57:46.103Z,5.60
2018-12-19T02:58:46.078Z,5.30
2018-12-19T02:59:46.059Z,5.10
2018-12-19T03:00:46.037Z,5.20
2018-12-19T03:01:46.018Z,5.10
2018-12-19T03:02:45.998Z,5.20
2018-12-19T03:03:46.024Z,5.60
2018-12-19T03:04:45.948Z,5.40
2018-12-19T03:05:45.926Z,5.00
2018-12-19T03:06:45.902Z,5.20
2018-12-19T03:07:45.885Z,5.20
2018-12-19T03:08:45.860Z,4.80
2018-12-19T03:09:45.837Z,4.90
2018-12-19T03:10:45.816Z,4.90
2018-12-19T03:11:45.804Z,5.10
2018-12-19T03:12:45.774Z,5.10
2018-12-19T03:13:45.749Z,5.10
2018-12-19T03:14:45.733Z,4.70
2018-12-19T03:15:45.707Z,5.00
2018-12-19T03:16:45.687Z,4.80
2018-12-19T03:17:45.668Z,5.00
2018-12-19T03:18:45.645Z,4.60
2018-12-19T03:19:45.622Z,5.00
2018-12-19T03:20:45.597Z,4.60
2018-12-19T03:21:45.576Z,4.50
2018-12-19T03:22:45.557Z,4.70
2018-12-19T03:23:45.538Z,4.50
2018-12-19T03:24:45.516Z,4.50
2018-12-19T03:25:45.496Z,4.50
2018-12-19T03:26:45.467Z,4.90
2018-12-19T03:27:45.446Z,4.80
2018-12-19T03:28:45.426Z,4.90
2018-12-19T03:29:45.405Z,5.10
2018-12-19T03:30:45.381Z,4.80
2018-12-19T03:31:45.358Z,5.00
2018-12-19T03:32:45.344Z,4.40
2018-12-19T03:33:45.315Z,4.80
2018-12-19T03:34:45.294Z,4.90
2018-12-19T03:35:45.268Z,4.50
2018-12-19T03:36:45.247Z,4.90
2018-12-19T03:37:45.227Z,5.10
2018-12-19T03:38:45.203Z,5.30
2018-12-19T03:39:50.285Z,5.10
2018-12-19T03:40:45.163Z,4.70
2018-12-19T03:41:45.141Z,5.20
2018-12-19T03:42:45.123Z,4.90
2018-12-19T03:43:45.098Z,5.30
2018-12-19T03:44:45.078Z,4.90
2018-12-19T03:45:45.056Z,4.90
2018-12-19T03:46:45.038Z,4.90
2018-12-19T03:47:45.011Z,5.30
2018-12-19T03:48:44.990Z,4.80
2018-12-19T03:49:44.974Z,5.30
2018-12-19T03:50:44.946Z,4.90
2018-12-19T03:51:44.928Z,5.20
2018-12-19T03:52:44.904Z,5.60
2018-12-19T03:53:44.887Z,5.10
2018-12-19T03:54:44.861Z,5.30
2018-12-19T03:55:44.846Z,5.20
2018-12-19T03:56:44.820Z,5.20
2018-12-19T03:57:44.798Z,5.20
2018-12-19T03:58:44.775Z,5.20
2018-12-19T03:59:44.754Z,5.70
2018-12-19T04:00:44.732Z,5.70
2018-12-19T04:01:44.714Z,5.40
2018-12-19T04:02:44.688Z,5.60
2018-12-19T04:03:44.668Z,5.70
2018-12-19T04:04:44.650Z,6.00
2018-12-19T04:05:44.624Z,5.80
2018-12-19T04:06:44.608Z,5.10
2018-12-19T04:07:44.583Z,5.50
2018-12-19T04:08:44.561Z,5.10
2018-12-19T04:09:44.542Z,5.10
2018-12-19T04:10:44.519Z,5.20
2018-12-19T04:11:44.497Z,4.70
2018-12-19T04:12:44.476Z,5.30
2018-12-19T04:13:44.452Z,5.20
2018-12-19T04:14:44.430Z,5.10
2018-12-19T04:15:44.415Z,4.80
2018-12-19T04:16:44.389Z,5.30
2018-12-19T04:17:44.373Z,5.30
2018-12-19T04:18:44.345Z,5.50
2018-12-19T04:19:44.331Z,5.70
2018-12-19T04:20:44.303Z,5.40
2018-12-19T04:21:44.283Z,4.90
2018-12-19T04:22:44.259Z,5.20
2018-12-19T04:23:44.250Z,5.30
2018-12-19T04:24:44.218Z,5.30
2018-12-19T04:25:44.194Z,5.20
2018-12-19T04:26:44.170Z,5.50
2018-12-19T04:27:44.157Z,5.00
2018-12-19T04:28:44.127Z,5.50
2018-12-19T04:29:44.111Z,5.60
2018-12-19T04:30:44.104Z,6.10
2018-12-19T04:31:44.069Z,6.00
2018-12-19T04:32:44.045Z,5.30
2018-12-19T04:33:44.068Z,5.70
2018-12-19T04:34:43.997Z,5.90
2018-12-19T04:35:43.978Z,5.90
2018-12-19T04:36:43.971Z,6.20
2018-12-19T04:37:43.935Z,5.70
2018-12-19T04:38:43.920Z,5.30
2018-12-19T04:39:43.896Z,6.10
2018-12-19T04:40:43.875Z,5.90
2018-12-19T04:41:43.849Z,6.40
2018-12-19T04:42:43.832Z,6.10
2018-12-19T04:43:43.806Z,6.30
2018-12-19T04:44:43.782Z,6.20
2018-12-19T04:45:43.762Z,6.40
2018-12-19T04:46:43.737Z,6.50
2018-12-19T04:47:43.719Z,5.90
2018-12-19T04:48:43.703Z,6.60
2018-12-19T04:49:43.673Z,6.40
2018-12-19T04:50:43.651Z,6.30
2018-12-19T04:51:43.636Z,6.40
2018-12-19T04:52:43.608Z,6.60
2018-12-19T04:53:43.585Z,6.40
2018-12-19T04:54:43.564Z,6.40
2018-12-19T04:55:43.545Z,6.50
2018-12-19T04:56:43.522Z,5.80
2018-12-19T04:57:43.499Z,6.60
2018-12-19T04:58:43.500Z,6.10
2018-12-19T04:59:43.456Z,5.80
2018-12-19T05:00:43.436Z,5.80
2018-12-19T05:01:43.413Z,6.30
2018-12-19T05:02:43.390Z,6.10
2018-12-19T05:03:43.370Z,6.40
2018-12-19T05:04:43.346Z,6.20
2018-12-19T05:05:43.330Z,6.70
2018-12-19T05:06:43.304Z,6.70
2018-12-19T05:07:43.282Z,6.60
2018-12-19T05:08:43.264Z,6.60
2018-12-19T05:09:43.240Z,7.30
2018-12-19T05:10:43.216Z,6.70
2018-12-19T05:11:43.196Z,7.20
2018-12-19T05:12:43.174Z,6.70
2018-12-19T05:13:43.153Z,6.50
2018-12-19T05:14:43.131Z,6.90
2018-12-19T05:15:43.137Z,6.90
2018-12-19T05:16:43.090Z,6.90
2018-12-19T05:17:43.068Z,7.10
2018-12-19T05:18:43.046Z,7.20
2018-12-19T05:19:43.025Z,7.40
2018-12-19T05:20:43.000Z,7.60
2018-12-19T05:21:42.978Z,7.50
2018-12-19T05:22:42.956Z,7.10
2018-12-19T05:23:42.932Z,7.30
2018-12-19T05:24:42.910Z,8.10
2018-12-19T05:25:42.891Z,7.30
2018-12-19T05:26:42.866Z,8.00
2018-12-19T05:27:42.844Z,7.40
2018-12-19T05:28:42.821Z,7.20
2018-12-19T05:29:42.800Z,7.80
2018-12-19T05:30:42.777Z,7.70
2018-12-19T05:31:42.756Z,7.90
2018-12-19T05:32:42.738Z,7.30
2018-12-19T05:33:42.719Z,7.90
2018-12-19T05:34:42.695Z,7.40
2018-12-19T05:35:42.672Z,8.00
2018-12-19T05:36:42.650Z,7.80
2018-12-19T05:37:42.630Z,7.80
2018-12-19T05:38:42.607Z,7.50
2018-12-19T05:39:42.586Z,7.70
2018-12-19T05:40:42.561Z,7.50
2018-12-19T05:41:42.539Z,7.50
2018-12-19T05:42:42.519Z,7.90
2018-12-19T05:43:42.498Z,7.60
2018-12-19T05:44:42.474Z,7.90
2018-12-19T05:45:42.459Z,7.40
2018-12-19T05:46:42.436Z,8.00
2018-12-19T05:47:42.414Z,7.90
2018-12-19T05:48:42.389Z,7.90
2018-12-19T05:49:42.369Z,7.60
2018-12-19T05:50:42.344Z,7.60
2018-12-19T05:51:42.322Z,7.90
2018-12-19T05:52:42.302Z,7.70
2018-12-19T05:53:42.281Z,7.50
2018-12-19T05:54:42.255Z,8.50
2018-12-19T05:55:42.235Z,7.90
2018-12-19T05:56:42.212Z,7.70
2018-12-19T05:57:42.200Z,8.10
2018-12-19T05:58:42.168Z,8.00
2018-12-19T05:59:42.148Z,8.00
2018-12-19T06:00:42.128Z,8.30
2018-12-19T06:01:42.109Z,7.90
2018-12-19T06:02:42.082Z,7.50
2018-12-19T06:03:42.065Z,7.30
2018-12-19T06:04:42.050Z,7.30
2018-12-19T06:05:42.019Z,8.10
2018-12-19T06:06:41.996Z,8.30
2018-12-19T06:07:41.976Z,8.60
2018-12-19T06:08:41.956Z,8.00
2018-12-19T06:09:41.932Z,7.70
2018-12-19T06:10:41.921Z,7.00
2018-12-19T06:11:41.888Z,7.60
2018-12-19T06:12:41.869Z,6.80
2018-12-19T06:13:41.846Z,7.10
2018-12-19T06:14:41.825Z,7.20
2018-12-19T06:15:41.802Z,6.50
2018-12-19T06:16:41.788Z,6.50
2018-12-19T06:17:41.760Z,7.20
2018-12-19T06:18:41.747Z,6.50
2018-12-19T06:19:41.717Z,6.60
2018-12-19T06:20:41.697Z,6.20
2018-12-19T06:21:41.673Z,6.30
2018-12-19T06:22:41.652Z,6.70
2018-12-19T06:23:41.641Z,6.10
2018-12-19T06:24:41.610Z,6.40
2018-12-19T06:25:41.588Z,6.50
2018-12-19T06:26:41.568Z,6.40
2018-12-19T06:27:41.546Z,6.20
2018-12-19T06:28:41.527Z,6.10
2018-12-19T06:29:41.509Z,6.50
2018-12-19T06:30:41.483Z,6.50
2018-12-19T06:31:41.468Z,6.20
2018-12-19T06:32:41.440Z,6.20
2018-12-19T06:33:41.423Z,7.50
2018-12-19T06:34:41.395Z,6.30
2018-12-19T06:35:41.378Z,6.30
2018-12-19T06:36:41.454Z,6.40
2018-12-19T06:37:41.337Z,7.20
2018-12-19T06:38:41.318Z,6.80
2018-12-19T06:39:41.293Z,6.70
2018-12-19T06:40:41.267Z,6.20
2018-12-19T06:41:41.248Z,7.10
2018-12-19T06:42:41.225Z,6.60
2018-12-19T06:43:41.210Z,6.60
2018-12-19T06:44:41.192Z,6.80
2018-12-19T06:45:41.161Z,6.90
2018-12-19T06:46:41.140Z,7.70
2018-12-19T06:47:41.119Z,6.70
2018-12-19T06:48:41.098Z,7.30
2018-12-19T06:49:41.080Z,7.10
2018-12-19T06:50:41.074Z,7.00
2018-12-19T06:51:41.036Z,7.40
2018-12-19T06:52:41.019Z,7.30
2018-12-19T06:53:40.993Z,6.90
2018-12-19T06:54:40.970Z,6.70
2018-12-19T06:55:40.957Z,7.50
2018-12-19T06:56:40.928Z,6.60
2018-12-19T06:57:40.909Z,6.70
2018-12-19T06:58:40.891Z,6.60
2018-12-19T06:59:40.869Z,6.40
2018-12-19T07:00:40.849Z,6.90
2018-12-19T07:01:40.824Z,7.50
2018-12-19T07:02:40.805Z,7.00
2018-12-19T07:03:40.782Z,7.10
2018-12-19T07:04:40.761Z,7.40
2018-12-19T07:05:40.742Z,7.10
2018-12-19T07:06:40.720Z,7.00
2018-12-19T07:07:40.746Z,6.90
2018-12-19T07:08:41.512Z,6.90
2018-12-19T07:09:40.655Z,6.50
2018-12-19T07:10:40.633Z,6.80
2018-12-19T07:11:40.613Z,7.10
2018-12-19T07:12:40.603Z,6.90
2018-12-19T07:13:40.572Z,7.30
2018-12-19T07:14:40.561Z,6.50
2018-12-19T07:15:40.531Z,7.50
2018-12-19T07:16:43.410Z,6.90
2018-12-19T07:17:40.488Z,6.60
2018-12-19T07:18:40.463Z,7.80
2018-12-19T07:19:40.442Z,7.10
2018-12-19T07:20:40.424Z,7.20
2018-12-19T07:21:40.396Z,7.10
2018-12-19T07:22:40.375Z,7.20
2018-12-19T07:23:40.354Z,7.90
2018-12-19T07:24:40.343Z,6.70
2018-12-19T07:25:40.313Z,7.70
2018-12-19T07:26:40.296Z,7.20
2018-12-19T07:27:40.268Z,7.80
2018-12-19T07:28:40.260Z,7.60
2018-12-19T07:29:40.231Z,7.70
2018-12-19T07:30:40.206Z,7.70
2018-12-19T07:31:40.186Z,7.60
2018-12-19T07:32:40.163Z,7.20
2018-12-19T07:33:40.156Z,6.60
2018-12-19T07:34:44.166Z,8.20
2018-12-19T07:35:40.103Z,7.60
2018-12-19T07:36:40.094Z,7.40
2018-12-19T07:37:40.058Z,7.30
2018-12-19T07:38:40.035Z,8.00
2018-12-19T07:39:40.016Z,8.20
2018-12-19T07:40:45.503Z,7.60
2018-12-19T07:41:39.979Z,8.00
2018-12-19T07:42:39.954Z,7.90
2018-12-19T07:43:39.940Z,8.80
2018-12-19T07:44:39.914Z,8.10
2018-12-19T07:45:39.886Z,8.00
2018-12-19T07:46:39.873Z,8.40
2018-12-19T07:47:39.851Z,8.30
2018-12-19T07:48:39.830Z,8.30
2018-12-19T07:49:39.806Z,8.10
2018-12-19T07:50:39.783Z,8.70
2018-12-19T07:51:39.764Z,9.00
2018-12-19T07:52:39.740Z,9.30
2018-12-19T07:53:39.720Z,8.50
2018-12-19T07:54:39.707Z,8.90
2018-12-19T07:55:39.684Z,8.50
2018-12-19T07:56:39.654Z,8.60
2018-12-19T07:57:39.645Z,8.70
2018-12-19T07:58:39.613Z,8.70
2018-12-19T07:59:39.600Z,9.00
2018-12-19T08:00:39.578Z,8.70
2018-12-19T08:01:39.550Z,8.70
2018-12-19T08:02:39.532Z,8.90
2018-12-19T08:03:39.507Z,9.90
2018-12-19T08:04:39.488Z,9.30
2018-12-19T08:05:39.473Z,8.20
2018-12-19T08:06:39.446Z,9.20
2018-12-19T08:07:39.422Z,9.10
2018-12-19T08:08:39.402Z,9.40
2018-12-19T08:09:39.382Z,9.00
2018-12-19T08:10:39.361Z,8.50
2018-12-19T08:11:39.349Z,8.90
2018-12-19T08:12:39.320Z,9.30
2018-12-19T08:13:39.301Z,9.30
2018-12-19T08:14:39.273Z,9.40
2018-12-19T08:15:39.251Z,8.90
2018-12-19T08:16:39.247Z,9.90
2018-12-19T08:17:39.214Z,9.20
2018-12-19T08:18:39.195Z,10.40
2018-12-19T08:19:39.168Z,9.80
2018-12-19T08:20:39.148Z,10.30
2018-12-19T08:21:39.130Z,9.90
2018-12-19T08:22:39.110Z,9.60
2018-12-19T08:23:39.082Z,9.90
2018-12-19T08:24:39.062Z,10.40
2018-12-19T08:25:39.043Z,10.90
2018-12-19T08:26:39.017Z,9.90
2018-12-19T08:27:39.001Z,10.80
2018-12-19T08:28:38.979Z,10.30
2018-12-19T08:29:38.956Z,10.50
2018-12-19T08:30:38.935Z,10.60
2018-12-19T08:31:38.914Z,10.50
2018-12-19T08:32:38.892Z,10.20
2018-12-19T08:33:38.875Z,11.00
2018-12-19T08:34:38.849Z,10.70
2018-12-19T08:35:38.832Z,10.50
2018-12-19T08:36:38.812Z,10.80
2018-12-19T08:37:38.788Z,10.50
2018-12-19T08:38:38.767Z,10.70
2018-12-19T08:39:38.743Z,10.80
2018-12-19T08:40:38.725Z,10.50
2018-12-19T08:41:38.703Z,10.10
2018-12-19T08:42:38.682Z,10.40
2018-12-19T08:43:38.663Z,11.20
2018-12-19T08:44:38.642Z,11.10
2018-12-19T08:45:38.625Z,10.90
2018-12-19T08:46:38.606Z,11.00
2018-12-19T08:47:38.576Z,10.60
2018-12-19T08:48:38.555Z,11.40
2018-12-19T08:49:38.541Z,11.00
2018-12-19T08:50:38.522Z,11.00
2018-12-19T08:51:38.495Z,11.00
2018-12-19T08:52:38.480Z,11.30
2018-12-19T08:53:38.458Z,11.00
2018-12-19T08:54:38.432Z,10.50
2018-12-19T08:55:38.415Z,10.60
2018-12-19T08:56:38.396Z,10.90
2018-12-19T08:57:38.370Z,10.70
2018-12-19T08:58:38.351Z,11.10
2018-12-19T08:59:38.330Z,10.40
2018-12-19T09:00:38.315Z,10.60
2018-12-19T09:01:38.285Z,10.60
2018-12-19T09:02:38.266Z,10.40
2018-12-19T09:03:38.252Z,11.50
2018-12-19T09:04:38.224Z,10.70
2018-12-19T09:05:38.211Z,11.60
2018-12-19T09:06:38.183Z,11.90
2018-12-19T09:07:38.163Z,11.50
2018-12-19T09:08:38.140Z,11.20
2018-12-19T09:09:38.114Z,11.50
2018-12-19T09:10:38.097Z,10.80
2018-12-19T09:11:38.075Z,11.70
2018-12-19T09:12:38.062Z,11.50
2018-12-19T09:13:38.033Z,11.10
2018-12-19T09:14:38.012Z,11.30
2018-12-19T09:15:37.991Z,10.70
2018-12-19T09:16:37.966Z,11.60
2018-12-19T09:17:37.946Z,11.40
2018-12-19T09:18:37.926Z,10.10
2018-12-19T09:19:37.905Z,10.70
2018-12-19T09:20:37.882Z,10.80
2018-12-19T09:21:37.865Z,10.00
2018-12-19T09:22:37.841Z,10.80
2018-12-19T09:23:37.825Z,10.50
2018-12-19T09:24:37.805Z,10.00
2018-12-19T09:25:37.780Z,9.80
2018-12-19T09:26:37.766Z,10.00
2018-12-19T09:27:37.736Z,9.40
2018-12-19T09:28:37.722Z,8.60
2018-12-19T09:29:37.694Z,9.80
2018-12-19T09:30:37.673Z,10.10
2018-12-19T09:31:37.657Z,9.80
2018-12-19T09:32:37.632Z,9.10
2018-12-19T09:33:37.613Z,9.60
2018-12-19T09:34:37.587Z,9.90
2018-12-19T09:35:37.567Z,8.90
2018-12-19T09:36:37.554Z,9.40
2018-12-19T09:37:37.526Z,9.30
2018-12-19T09:38:37.508Z,9.60
2018-12-19T09:39:37.484Z,10.00
2018-12-19T09:40:37.471Z,9.10
2018-12-19T09:41:37.447Z,10.10
2018-12-19T09:42:37.431Z,9.90
2018-12-19T09:43:37.399Z,9.80
2018-12-19T09:44:37.386Z,9.90
2018-12-19T09:45:37.368Z,9.60
2018-12-19T09:46:37.337Z,10.50
2018-12-19T09:47:37.316Z,10.40
2018-12-19T09:48:37.309Z,9.90
2018-12-19T09:49:37.277Z,9.70
2018-12-19T09:50:37.251Z,9.40
2018-12-19T09:51:37.233Z,9.10
2018-12-19T09:52:37.213Z,8.80
2018-12-19T09:53:37.200Z,8.90
2018-12-19T09:54:37.172Z,9.50
2018-12-19T09:55:37.156Z,9.30
2018-12-19T09:56:37.132Z,9.90
2018-12-19T09:57:37.113Z,9.40
2018-12-19T09:58:37.094Z,9.90
2018-12-19T09:59:37.068Z,9.40
2018-12-19T10:00:37.047Z,9.00
2018-12-19T10:01:37.027Z,9.80
2018-12-19T10:02:37.004Z,9.30
2018-12-19T10:03:36.988Z,9.70
2018-12-19T10:04:36.969Z,10.40
2018-12-19T10:05:36.947Z,9.70
2018-12-19T10:06:36.922Z,9.50
2018-12-19T10:07:36.910Z,9.20
2018-12-19T10:08:36.881Z,9.20
2018-12-19T10:09:36.862Z,9.00
2018-12-19T10:10:36.841Z,9.10
2018-12-19T10:11:36.830Z,7.80
2018-12-19T10:12:36.803Z,8.80
2018-12-19T10:13:36.788Z,9.30
2018-12-19T10:14:36.766Z,8.80
2018-12-19T10:15:36.738Z,8.90
2018-12-19T10:16:36.784Z,8.40
2018-12-19T10:17:40.907Z,8.30
2018-12-19T10:18:36.679Z,8.80
2018-12-19T10:19:36.661Z,8.40
2018-12-19T10:20:36.669Z,8.80
2018-12-19T10:21:36.621Z,9.10
2018-12-19T10:22:36.604Z,8.50
2018-12-19T10:23:36.584Z,8.40
2018-12-19T10:24:36.570Z,9.10
2018-12-19T10:25:36.542Z,8.30
2018-12-19T10:26:36.520Z,8.10
2018-12-19T10:27:36.495Z,7.90
2018-12-19T10:28:36.475Z,7.90
2018-12-19T10:29:36.460Z,7.90
2018-12-19T10:30:36.437Z,7.70
2018-12-19T10:31:36.419Z,8.70
2018-12-19T10:32:36.397Z,8.40
2018-12-19T10:33:36.375Z,8.40
2018-12-19T10:34:36.362Z,8.70
2018-12-19T10:35:36.336Z,8.70
2018-12-19T10:36:36.319Z,8.30
2018-12-19T10:37:36.296Z,8.20
2018-12-19T10:38:36.276Z,7.20
2018-12-19T10:39:36.254Z,8.00
2018-12-19T10:40:36.239Z,7.90
2018-12-19T10:41:36.215Z,8.50
2018-12-19T10:42:36.197Z,8.10
2018-12-19T10:43:36.181Z,8.40
2018-12-19T10:44:36.156Z,8.80
2018-12-19T10:45:36.140Z,8.20
2018-12-19T10:46:36.119Z,8.10
2018-12-19T10:47:36.096Z,8.70
2018-12-19T10:48:36.075Z,9.00
2018-12-19T10:49:36.058Z,9.00
2018-12-19T10:50:36.041Z,8.40
2018-12-19T10:51:36.020Z,7.80
2018-12-19T10:52:35.996Z,8.90
2018-12-19T10:53:35.978Z,8.20
2018-12-19T10:54:35.958Z,9.00
2018-12-19T10:55:35.936Z,8.40
2018-12-19T10:56:35.923Z,8.50
2018-12-19T10:57:35.908Z,8.20
2018-12-19T10:58:35.879Z,8.20
2018-12-19T10:59:35.854Z,8.20
2018-12-19T11:00:35.845Z,8.60
2018-12-19T11:01:35.817Z,8.30
2018-12-19T11:02:35.799Z,8.10
2018-12-19T11:03:35.776Z,8.10
2018-12-19T11:04:35.756Z,7.90
2018-12-19T11:05:35.734Z,8.30
2018-12-19T11:06:35.713Z,8.10
2018-12-19T11:07:35.693Z,8.30
2018-12-19T11:08:35.679Z,7.60
2018-12-19T11:09:35.654Z,8.20
2018-12-19T11:10:35.635Z,7.90
2018-12-19T11:11:35.621Z,8.00
2018-12-19T11:12:35.596Z,8.50
2018-12-19T11:13:35.575Z,7.30
2018-12-19T11:14:35.560Z,7.70
2018-12-19T11:15:35.537Z,7.50
2018-12-19T11:16:35.516Z,7.60
2018-12-19T11:17:35.497Z,7.90
2018-12-19T11:18:35.476Z,8.00
2018-12-19T11:19:35.457Z,8.20
2018-12-19T11:20:35.436Z,7.60
2018-12-19T11:21:35.418Z,8.20
2018-12-19T11:22:35.397Z,7.80
2018-12-19T11:23:35.381Z,7.30
2018-12-19T11:24:35.356Z,8.10
2018-12-19T11:25:35.337Z,7.70
2018-12-19T11:26:35.335Z,8.30
2018-12-19T11:27:35.300Z,7.60
2018-12-19T11:28:35.282Z,8.10
2018-12-19T11:29:35.329Z,7.60
2018-12-19T11:30:35.237Z,8.30
2018-12-19T11:31:35.222Z,7.70
2018-12-19T11:32:35.201Z,7.60
2018-12-19T11:33:35.179Z,8.60
2018-12-19T11:34:35.161Z,7.60
2018-12-19T11:35:35.137Z,7.80
2018-12-19T11:36:35.124Z,7.50
2018-12-19T11:37:35.101Z,7.40
2018-12-19T11:38:35.080Z,7.60
2018-12-19T11:39:35.062Z,7.80
2018-12-19T11:40:35.048Z,7.70
2018-12-19T11:41:38.947Z,8.20
2018-12-19T11:42:35.002Z,8.10
2018-12-19T11:43:34.985Z,8.20
2018-12-19T11:44:34.970Z,7.70
2018-12-19T11:45:34.945Z,7.70
2018-12-19T11:46:34.922Z,7.50
2018-12-19T11:47:34.907Z,7.60
2018-12-19T11:48:34.886Z,7.80
2018-12-19T11:49:34.864Z,7.70
2018-12-19T11:50:34.853Z,8.00
2018-12-19T11:51:34.826Z,7.60
2018-12-19T11:52:34.809Z,7.90
2018-12-19T11:54:34.780Z,7.90
2018-12-19T11:55:34.749Z,7.50
2018-12-19T11:56:34.731Z,7.90
2018-12-19T11:57:34.714Z,8.10
2018-12-19T11:58:34.692Z,7.80
2018-12-19T11:59:34.676Z,7.80
2018-12-19T12:00:34.650Z,7.90
2018-12-19T12:01:41.175Z,7.20
2018-12-19T12:02:34.612Z,7.80
2018-12-19T12:03:34.589Z,7.90
2018-12-19T12:04:34.572Z,8.00
2018-12-19T12:05:34.557Z,7.60
2018-12-19T12:06:34.538Z,7.70
2018-12-19T12:07:34.513Z,7.30
2018-12-19T12:08:34.494Z,7.10
2018-12-19T12:09:34.480Z,7.50
2018-12-19T12:10:34.456Z,8.00
2018-12-19T12:11:34.436Z,7.40
2018-12-19T12:12:34.415Z,7.10
2018-12-19T12:13:34.396Z,7.40
2018-12-19T12:14:34.382Z,7.30
2018-12-19T12:15:34.364Z,7.00
2018-12-19T12:16:34.337Z,7.10
2018-12-19T12:17:34.320Z,7.00
2018-12-19T12:18:34.300Z,7.20
2018-12-19T12:19:34.280Z,7.10
2018-12-19T12:20:34.262Z,7.50
2018-12-19T12:21:34.250Z,7.30
2018-12-19T12:22:34.225Z,7.50
2018-12-19T12:23:34.201Z,7.50
2018-12-19T12:24:34.189Z,7.50
2018-12-19T12:25:34.169Z,7.20
2018-12-19T12:26:34.146Z,7.40
2018-12-19T12:27:34.125Z,7.80
2018-12-19T12:28:34.113Z,8.60
2018-12-19T12:29:34.085Z,7.50
2018-12-19T12:30:34.065Z,8.50
2018-12-19T12:31:34.059Z,7.70
2018-12-19T12:32:34.092Z,7.70
2018-12-19T12:33:34.017Z,7.20
2018-12-19T12:34:33.992Z,7.10
2018-12-19T12:35:33.969Z,7.80
2018-12-19T12:36:33.954Z,8.20
2018-12-19T12:37:33.929Z,7.70
2018-12-19T12:38:34.301Z,7.90
2018-12-19T12:39:33.896Z,8.30
2018-12-19T12:40:33.872Z,8.30
2018-12-19T12:41:33.858Z,8.10
2018-12-19T12:42:33.844Z,7.50
2018-12-19T12:43:33.821Z,7.80
2018-12-19T12:44:33.803Z,7.80
2018-12-19T12:45:33.788Z,7.40
2018-12-19T12:46:33.761Z,8.00
2018-12-19T12:47:33.747Z,7.40
2018-12-19T12:48:33.741Z,7.60
2018-12-19T12:49:33.704Z,7.70
2018-12-19T12:50:33.687Z,7.40
2018-12-19T12:51:33.662Z,8.20
2018-12-19T12:52:33.646Z,7.60
2018-12-19T12:53:33.621Z,8.20
2018-12-19T12:54:33.600Z,8.40
2018-12-19T12:55:33.581Z,8.30
2018-12-19T12:56:33.567Z,8.60
2018-12-19T12:57:33.542Z,8.20
2018-12-19T12:58:33.525Z,8.40
2018-12-19T12:59:33.515Z,8.30
2018-12-19T13:00:33.488Z,8.80
2018-12-19T13:01:33.467Z,8.10
2018-12-19T13:02:33.454Z,8.10
2018-12-19T13:03:33.426Z,8.10
2018-12-19T13:04:33.408Z,8.20
2018-12-19T13:05:33.402Z,7.10
2018-12-19T13:06:33.367Z,8.00
2018-12-19T13:07:33.345Z,7.20
2018-12-19T13:08:33.337Z,6.80
2018-12-19T13:09:33.317Z,7.70
2018-12-19T13:10:36.231Z,7.00
2018-12-19T13:11:33.277Z,7.50
2018-12-19T13:12:33.251Z,6.50
2018-12-19T13:13:33.231Z,7.30
2018-12-19T13:14:33.210Z,7.80
2018-12-19T13:15:33.190Z,7.20
2018-12-19T13:16:33.172Z,7.20
2018-12-19T13:17:33.169Z,6.90